createdAt,value
2023-05-07T00:02:45.664Z,33.15
2023-05-07T00:07:49.122Z,31.55
2023-05-07T00:17:58.481Z,33.53
2023-05-07T00:23:01.250Z,35.03
2023-05-07T00:28:05.372Z,32.45
2023-05-07T00:33:08.296Z,36.65
2023-05-07T00:38:11.057Z,32.80
2023-05-07T00:43:15.107Z,36.35
2023-05-07T00:48:17.991Z,33.72
2023-05-07T00:53:20.873Z,36.17
2023-05-07T00:58:25.821Z,35.10
2023-05-07T01:03:28.496Z,35.85
2023-05-07T01:13:37.062Z,37.25
2023-05-07T01:18:39.834Z,35.75
2023-05-07T01:23:44.238Z,33.30
2023-05-07T01:28:46.939Z,34.00
2023-05-07T01:33:51.966Z,34.33
2023-05-07T01:38:59.524Z,30.00
2023-05-07T01:44:03.391Z,29.67
2023-05-07T01:49:06.125Z,29.60
2023-05-07T01:54:10.131Z,31.52
2023-05-07T01:59:14.523Z,30.98
2023-05-07T02:04:17.203Z,31.77
2023-05-07T02:09:21.268Z,31.50
2023-05-07T02:14:23.862Z,32.95
2023-05-07T02:19:26.465Z,33.03
2023-05-07T02:24:30.995Z,33.60
2023-05-07T02:29:33.845Z,33.55
2023-05-07T02:34:36.700Z,32.95
2023-05-07T02:39:40.729Z,34.50
2023-05-07T02:44:43.400Z,32.53
2023-05-07T02:49:45.996Z,34.65
2023-05-07T02:54:49.999Z,29.67
2023-05-07T02:59:53.017Z,31.75
2023-05-07T03:04:55.732Z,29.48
2023-05-07T03:09:59.658Z,29.53
2023-05-07T03:15:02.297Z,27.13
2023-05-07T03:20:05.829Z,28.87
2023-05-07T03:25:11.163Z,28.27
2023-05-07T03:30:15.154Z,27.52
2023-05-07T03:35:17.799Z,25.98
2023-05-07T03:40:21.850Z,28.03
2023-05-07T03:45:24.475Z,27.15
2023-05-07T03:50:27.113Z,28.90
2023-05-07T03:55:31.017Z,30.27
2023-05-07T04:00:35.067Z,30.48
2023-05-07T04:05:37.632Z,32.35
2023-05-07T04:10:41.653Z,31.17
2023-05-07T04:15:44.327Z,30.63
2023-05-07T04:20:46.874Z,32.23
2023-05-07T04:25:50.970Z,30.90
2023-05-07T04:30:53.551Z,31.15
2023-05-07T04:35:56.328Z,30.77
2023-05-07T04:41:06.268Z,30.08
2023-05-07T04:46:09.053Z,28.30
2023-05-07T04:51:11.906Z,29.23
2023-05-07T04:56:15.893Z,26.90
2023-05-07T05:01:18.626Z,27.92
2023-05-07T05:06:21.386Z,27.10
2023-05-07T05:11:25.451Z,27.38
2023-05-07T05:16:28.482Z,25.90
2023-05-07T05:21:31.117Z,25.60
2023-05-07T05:26:35.066Z,24.40
2023-05-07T05:31:37.705Z,23.98
2023-05-07T05:36:40.356Z,23.85
2023-05-07T05:41:44.266Z,25.23
2023-05-07T05:46:46.893Z,23.73
2023-05-07T05:51:49.471Z,22.30
2023-05-07T05:56:53.486Z,21.43
2023-05-07T06:01:56.087Z,23.52
2023-05-07T06:06:58.803Z,21.52
2023-05-07T06:12:02.797Z,22.73
2023-05-07T06:17:06.238Z,21.70
2023-05-07T06:22:09.285Z,21.38
2023-05-07T06:27:13.233Z,20.95
2023-05-07T06:32:16.359Z,22.30
2023-05-07T06:37:19.017Z,22.15
2023-05-07T06:42:23.120Z,22.63
2023-05-07T06:47:26.206Z,22.77
2023-05-07T06:52:28.946Z,21.50
2023-05-07T06:57:33.939Z,22.38
2023-05-07T07:02:36.689Z,23.23
2023-05-07T07:07:39.367Z,23.77
2023-05-07T07:12:44.891Z,22.45
2023-05-07T07:17:47.577Z,21.77
2023-05-07T07:22:50.189Z,23.40
2023-05-07T07:27:54.183Z,23.67
2023-05-07T07:33:01.631Z,20.10
2023-05-07T07:38:04.324Z,20.02
2023-05-07T07:43:08.284Z,19.42
2023-05-07T07:48:10.941Z,19.30
2023-05-07T07:53:13.535Z,17.58
2023-05-07T07:58:17.548Z,18.25
2023-05-07T08:03:20.781Z,16.80
2023-05-07T08:08:23.469Z,16.73
2023-05-07T08:13:27.681Z,16.67
2023-05-07T08:18:30.394Z,16.60
2023-05-07T08:23:33.016Z,15.75
2023-05-07T08:28:37.435Z,16.95
2023-05-07T08:33:40.256Z,16.17
2023-05-07T08:43:50.573Z,17.35
2023-05-07T08:48:53.882Z,17.80
2023-05-07T08:53:56.702Z,18.92
2023-05-07T08:59:01.032Z,17.60
2023-05-07T09:04:04.035Z,17.67
2023-05-07T09:09:06.723Z,18.05
2023-05-07T09:14:10.645Z,17.50
2023-05-07T09:19:13.298Z,17.30
2023-05-07T09:24:17.842Z,18.95
2023-05-07T09:29:22.089Z,18.00
2023-05-07T09:34:24.839Z,17.58
2023-05-07T09:39:27.711Z,16.25
2023-05-07T09:49:37.791Z,15.57
2023-05-07T09:54:41.313Z,15.77
2023-05-07T09:59:45.722Z,16.55
2023-05-07T10:04:48.554Z,17.13
2023-05-07T10:09:52.285Z,13.70
2023-05-07T10:14:58.184Z,14.63
2023-05-07T10:20:02.212Z,13.52
2023-05-07T10:25:12.212Z,13.35
2023-05-07T10:30:27.920Z,13.90
2023-05-07T10:35:33.752Z,13.38
2023-05-07T10:40:37.030Z,13.48
2023-05-07T10:45:41.060Z,11.82
2023-05-07T10:50:44.804Z,14.70
2023-05-07T10:55:49.083Z,13.20
2023-05-07T11:00:59.195Z,14.60
2023-05-07T11:06:12.722Z,13.43
2023-05-07T11:11:16.524Z,13.52
2023-05-07T11:16:23.861Z,13.73
2023-05-07T11:21:37.857Z,14.00
2023-05-07T11:26:46.963Z,13.35
2023-05-07T11:31:55.304Z,12.40
2023-05-07T11:36:58.455Z,12.00
2023-05-07T11:42:02.868Z,14.27
2023-05-07T11:47:07.847Z,12.80
2023-05-07T11:52:12.008Z,12.68
2023-05-07T11:57:16.828Z,13.38
2023-05-07T12:02:20.875Z,14.43
2023-05-07T12:07:23.599Z,13.43
2023-05-07T12:12:28.003Z,11.32
2023-05-07T12:17:32.447Z,13.80
2023-05-07T12:22:35.160Z,13.27
2023-05-07T12:27:40.183Z,13.15
2023-05-07T12:32:47.299Z,11.85
2023-05-07T12:37:56.877Z,13.60
2023-05-07T12:43:01.315Z,11.90
2023-05-07T12:48:05.499Z,10.95
2023-05-07T12:53:12.028Z,10.93
2023-05-07T12:58:18.891Z,12.85
2023-05-07T13:03:28.385Z,11.88
2023-05-07T13:08:32.913Z,12.63
2023-05-07T13:13:37.009Z,12.23
2023-05-07T13:18:44.621Z,10.98
2023-05-07T13:23:47.547Z,11.55
2023-05-07T13:28:50.680Z,10.88
2023-05-07T13:33:54.812Z,9.88
2023-05-07T13:38:57.583Z,10.93
2023-05-07T13:44:00.211Z,10.95
2023-05-07T13:49:04.210Z,10.52
2023-05-07T13:54:06.856Z,8.65
2023-05-07T13:59:09.920Z,10.07
2023-05-07T14:04:13.937Z,8.93
2023-05-07T14:09:16.627Z,8.63
2023-05-07T14:14:19.363Z,9.00
2023-05-07T14:19:24.785Z,10.70
2023-05-07T14:24:37.640Z,11.80
2023-05-07T14:29:41.144Z,8.82
2023-05-07T14:34:45.479Z,8.80
2023-05-07T14:39:50.679Z,10.68
2023-05-07T14:44:54.129Z,11.52
2023-05-07T14:49:59.358Z,10.90
2023-05-07T14:55:02.306Z,9.10
2023-05-07T15:00:06.209Z,8.52
2023-05-07T15:05:11.022Z,11.35
2023-05-07T15:10:13.884Z,11.63
2023-05-07T15:15:16.457Z,10.65
2023-05-07T15:20:21.012Z,8.27
2023-05-07T15:25:24.155Z,9.98
2023-05-07T15:30:27.036Z,11.00
2023-05-07T15:35:31.384Z,9.65
2023-05-07T15:40:36.241Z,9.30
2023-05-07T15:45:41.215Z,9.25
2023-05-07T15:50:45.297Z,10.57
2023-05-07T15:55:49.526Z,10.60
2023-05-07T16:00:53.355Z,11.57
2023-05-07T16:05:58.141Z,11.23
2023-05-07T16:11:01.154Z,10.23
2023-05-07T16:16:04.314Z,11.38
2023-05-07T16:21:08.303Z,12.07
2023-05-07T16:26:10.958Z,12.48
2023-05-07T16:31:14.861Z,11.75
2023-05-07T16:36:19.276Z,13.40
2023-05-07T16:41:21.908Z,12.70
2023-05-07T16:46:24.633Z,12.85
2023-05-07T16:56:32.019Z,13.85
2023-05-07T17:01:35.249Z,15.38
2023-05-07T17:06:39.350Z,15.10
2023-05-07T17:11:41.995Z,15.48
2023-05-07T17:16:44.810Z,15.45
2023-05-07T17:21:48.960Z,15.52
2023-05-07T17:26:51.601Z,15.60
2023-05-07T17:31:54.322Z,16.23
2023-05-07T17:36:58.716Z,15.73
2023-05-07T17:42:01.424Z,16.75
2023-05-07T17:47:04.195Z,16.40
2023-05-07T17:52:09.483Z,16.60
2023-05-07T17:57:12.104Z,16.15
2023-05-07T18:02:14.857Z,17.45
2023-05-07T18:07:18.871Z,20.33
2023-05-07T18:12:23.174Z,18.10
2023-05-07T18:17:27.872Z,19.58
2023-05-07T18:22:32.024Z,18.23
2023-05-07T18:27:34.712Z,18.92
2023-05-07T18:32:37.470Z,20.90
2023-05-07T18:37:41.476Z,21.05
2023-05-07T18:42:44.308Z,18.30
2023-05-07T18:47:48.459Z,19.52
2023-05-07T18:52:52.633Z,19.10
2023-05-07T18:57:55.385Z,19.25
2023-05-07T19:02:58.024Z,21.45
2023-05-07T19:08:02.027Z,24.65
2023-05-07T19:13:04.805Z,26.98
2023-05-07T19:18:09.108Z,24.90
2023-05-07T19:23:13.149Z,23.83
2023-05-07T19:28:15.989Z,23.92
2023-05-07T19:33:18.635Z,23.50
2023-05-07T19:38:22.590Z,20.42
2023-05-07T19:43:25.471Z,20.92
2023-05-07T19:48:28.161Z,21.90
2023-05-07T19:53:32.312Z,21.92
2023-05-07T19:58:35.489Z,20.85
2023-05-07T20:08:44.854Z,20.73
2023-05-07T20:13:47.590Z,20.98
2023-05-07T20:18:50.368Z,19.23
2023-05-07T20:23:54.509Z,19.50
2023-05-07T20:28:57.277Z,19.08
2023-05-07T20:34:00.023Z,17.80
2023-05-07T20:39:04.306Z,18.65
2023-05-07T20:44:07.086Z,19.42
2023-05-07T20:49:09.794Z,17.13
2023-05-07T20:54:14.638Z,19.38
2023-05-07T20:59:17.459Z,17.60
2023-05-07T21:04:20.075Z,18.58
2023-05-07T21:09:24.194Z,18.17
2023-05-07T21:14:26.992Z,17.45
2023-05-07T21:19:29.616Z,16.13
2023-05-07T21:24:33.592Z,17.02
2023-05-07T21:29:36.453Z,15.90
2023-05-07T21:34:39.079Z,15.45
2023-05-07T21:39:44.133Z,16.13
2023-05-07T21:44:46.784Z,15.13
2023-05-07T21:49:49.404Z,16.02
2023-05-07T21:54:54.394Z,15.90
2023-05-07T21:59:57.097Z,15.70
2023-05-07T22:04:59.704Z,14.98
2023-05-07T22:10:03.782Z,16.33
2023-05-07T22:15:07.552Z,16.10
2023-05-07T22:20:11.532Z,18.25
2023-05-07T22:25:16.300Z,18.40
2023-05-07T22:30:19.390Z,16.42
2023-05-07T22:35:22.285Z,17.08
2023-05-07T22:40:26.308Z,17.55
2023-05-07T22:45:28.980Z,17.33
2023-05-07T22:50:31.690Z,18.30
2023-05-07T22:55:35.981Z,20.63
2023-05-07T23:00:38.866Z,21.48
2023-05-07T23:05:42.394Z,20.55
2023-05-07T23:10:46.526Z,20.38
2023-05-07T23:15:50.682Z,20.88
2023-05-07T23:20:53.260Z,20.52
2023-05-07T23:25:57.292Z,23.40
2023-05-07T23:31:00.015Z,22.48
2023-05-07T23:36:03.817Z,22.08
2023-05-07T23:41:08.214Z,21.60
2023-05-07T23:46:10.934Z,23.92
2023-05-07T23:51:13.620Z,24.05
2023-05-07T23:56:17.622Z,25.15
